ADDS METAR Data INFO
IDs: Format: Raw Decoded Include TAF

Data at: 0315 UTC 20 Jul 2018

KJHW 200156Z AUTO 05005KT 10SM CLR 19/12 A3010 RMK AO2 SLP189 T01940122
KJHW 200056Z AUTO 34004KT 10SM CLR 21/12 A3009 RMK AO2 SLP186 T02060117
KJHW 192356Z AUTO 34004KT 10SM CLR 23/13 A3008 RMK AO2 SLP185 T02280128 10250 20228 58005
KJHW 192256Z AUTO 20005KT 10SM CLR 24/11 A3010 RMK AO2 SLP190 T02440106
KJHW 192156Z AUTO 20007KT 160V220 10SM CLR 25/12 A3010 RMK AO2 SLP190 T02500117
KJHW 192056Z AUTO VRB03KT 10SM CLR 25/12 A3010 RMK AO2 SLP191 T02500122 56013
KJHW 191956Z AUTO VRB03KT 10SM CLR 24/12 A3011 RMK AO2 SLP195 T02390117
KJHW 191856Z AUTO VRB03KT 10SM CLR 24/11 A3013 RMK AO2 SLP200 T02390111
KJHW 191756Z AUTO 20004KT 10SM CLR 23/10 A3014 RMK AO2 SLP205 T02280100 10233 20144 58008
KJHW 191656Z AUTO 26009KT 10SM CLR 23/11 A3015 RMK AO2 SLP208 T02280111
KJHW 191556Z AUTO 25009KT 10SM CLR 22/11 A3016 RMK AO2 SLP212 T02170111
KJHW 191456Z AUTO 21007KT 10SM CLR 21/12 A3016 RMK AO2 SLP213 T02060117 53006
KJHW 191356Z AUTO 23007KT 10SM CLR 19/13 A3016 RMK AO2 SLP210 T01940128
KJHW 191256Z AUTO 17004KT 10SM CLR 17/13 A3015 RMK AO2 SLP211 T01720128
KJHW 191156Z AUTO 18003KT 10SM SCT002 14/12 A3015 RMK AO2 SLP208 T01440122 10144 20111 51001
KJHW 191154Z AUTO 00000KT 10SM SCT002 14/12 A3014 RMK AO2
KJHW 191143Z AUTO 17003KT 4SM BR BKN002 14/12 A3014 RMK AO2
KJHW 191056Z AUTO 18003KT 10SM CLR 12/11 A3015 RMK AO2 SLP209 T01170111
KJHW 191014Z AUTO 17003KT 4SM BR CLR 11/11 A3015 RMK AO2
KJHW 191003Z AUTO 00000KT 1 3/4SM BR CLR 11/11 A3014 RMK AO2
KJHW 190956Z AUTO 17003KT 10SM CLR 12/11 A3014 RMK AO2 SLP208 T01170111
KJHW 190856Z AUTO 20003KT 10SM CLR 12/11 A3013 RMK AO2 SLP203 T01170111 53003
KJHW 190756Z AUTO 21003KT 10SM CLR 12/11 A3012 RMK AO2 SLP198 T01220111
KJHW 190656Z AUTO 18003KT 10SM CLR 13/12 A3011 RMK AO2 SLP197 T01280117
KJHW 190556Z AUTO 18004KT 10SM CLR 13/12 A3012 RMK AO2 SLP199 T01280117 10200 20128 51004
KJHW 190456Z AUTO 00000KT 10SM CLR 13/12 A3012 RMK AO2 SLP199 T01330117 402220128
KJHW 190356Z AUTO 00000KT 10SM CLR 14/12 A3011 RMK AO2 SLP196 T01440117
KJHW 190256Z AUTO 33003KT 10SM CLR 16/12 A3011 RMK AO2 SLP195 T01610117 53007
KJHW 190156Z AUTO 34005KT 10SM CLR 17/11 A3010 RMK AO2 SLP191 T01720106
KJHW 190056Z AUTO 33003KT 10SM CLR 18/11 A3009 RMK AO2 SLP188 T01780111
KJHW 182356Z AUTO 34006KT 10SM CLR 20/11 A3008 RMK AO2 SLP186 T02000111 10222 20200 53000
KJHW 182256Z AUTO 02005KT 10SM CLR 21/11 A3008 RMK AO2 SLP185 T02110111
KJHW 182156Z AUTO 36006KT 10SM CLR 21/11 A3008 RMK AO2 SLP186 T02110111
KJHW 182056Z AUTO 35004KT 10SM CLR 22/11 A3008 RMK AO2 SLP185 T02170106 58003
KJHW 181956Z AUTO 34010KT 10SM CLR 22/11 A3009 RMK AO2 SLP187 T02170111
KJHW 181856Z AUTO 34008KT 10SM CLR 22/11 A3010 RMK AO2 SLP189 T02170111
KJHW 181756Z AUTO 33009KT 10SM FEW047 22/12 A3009 RMK AO2 SLP188 T02170117 10217 20167 58005
KJHW 181656Z AUTO 02006KT 10SM SCT046 21/12 A3010 RMK AO2 SLP192 T02110122
KJHW 181556Z AUTO 34006KT 10SM BKN035 BKN049 19/12 A3011 RMK AO2 SLP193 T01940122